Gervais, OR (97026)

11:26 AM PDT on September 03, 2015 (GMT -0700)
North of Brooks | | Change Station
CLOSE
Current Station
Personal Weather Station
Location: Salem, OR
Elevation: 177 ft
Nearby Weather Stations

Elev 177 ft 45.07 °N, 122.93 °W | Updated 7 minutes ago

Partly Cloudy
Partly Cloudy
64.8 °F
Feels Like 64.8 °F
N
2.2
Wind Variable Wind from SSW

Today
High -- | Low -- °F
--% Chance of Precip.
Yesterday
High -- | Low -- °F
Precip. -- in
6:35 AM 7:45 PM
Waning Gibbous, 68% visible
Pressure 30.05 in
Visibility 10.0 miles
Clouds Mostly Cloudy 8000 ft
Dew Point 51 °F
Humidity 61%
Rainfall 0.00 in
Snow Depth Not available.
UV 3 out of 12
Pollen 2.50 out of 12
Air Quality Not available.
Flu Activity Not available.
METAR KMMV 031753Z AUTO 00000KT 10SM BKN080 18/09 A3005 RMK AO2 SLP175 T01780089 10178 20078 58003
Pressure 30.05 in
Visibility 10.0 miles
Clouds Mostly Cloudy 8000 ft
Dew Point 51 °F
Humidity 61%
Rainfall 0.00 in
Snow Depth Not available.
UV 3 out of 12
Pollen 2.50 out of 12
Air Quality Not available.
Flu Activity Not available.
METAR KMMV 031753Z AUTO 00000KT 10SM BKN080 18/09 A3005 RMK AO2 SLP175 T01780089 10178 20078 58003

10-Day Weather Forecast

×

Almanac

Astronomy

Sep. 03, 2015 Rise Set
Actual Time
Civil Twilight
Nautical Twilight
Astronomical Twilight
Moon
Length of Visible Light
Length of Day
Tomorrow will be .
, % of the Moon is Illuminated

Today's Extremes

State Highs State Lows

Community

WunderPhotos

Upload Photos

1,851,999 photos uploaded!

WunderBlogs® & News

Nearby

Air Quality

  Air Quality AQ Index Pollutant
Not available.

Snow Depth

Station Depth Elevation

Earthquake Activity

City Distance Mag. Time & Date
Minimum magnitude displayed is 2.5.

Coastal Water Temperatures

Place Temperature

Stations

Nearby Weather Stations

Station Location Temp. Windchill Dew Point Humidity Wind Precip. Elev Updated Type